createdAt,value
2022-11-19T00:00:12.938Z,5.57
2022-11-19T00:02:42.698Z,4.83
2022-11-19T00:05:12.456Z,5.08
2022-11-19T00:07:41.972Z,6.50
2022-11-19T00:10:11.455Z,5.23
2022-11-19T00:12:55.812Z,6.77
2022-11-19T00:15:25.645Z,5.90
2022-11-19T00:17:55.360Z,6.10
2022-11-19T00:20:25.250Z,6.70
2022-11-19T00:22:57.130Z,5.47
2022-11-19T00:25:29.362Z,5.67
2022-11-19T00:27:59.767Z,6.97
2022-11-19T00:33:00.554Z,5.70
2022-11-19T00:35:30.009Z,7.03
2022-11-19T00:37:59.489Z,6.10
2022-11-19T00:40:28.950Z,5.53
2022-11-19T00:43:15.733Z,6.67
2022-11-19T00:45:45.261Z,6.20
2022-11-19T00:48:14.730Z,5.80
2022-11-19T00:50:44.214Z,6.37
2022-11-19T00:53:13.734Z,6.20
2022-11-19T00:55:43.214Z,6.33
2022-11-19T00:58:13.015Z,5.53
2022-11-19T01:00:42.559Z,4.87
2022-11-19T01:03:12.379Z,5.80
2022-11-19T01:05:41.923Z,5.93
2022-11-19T01:08:11.453Z,5.00
2022-11-19T01:10:41.445Z,6.27
2022-11-19T01:13:29.210Z,5.27
2022-11-19T01:15:59.123Z,5.47
2022-11-19T01:18:29.165Z,4.23
2022-11-19T01:20:58.690Z,5.90
2022-11-19T01:23:28.335Z,5.60
2022-11-19T01:25:57.871Z,5.57
2022-11-19T01:28:27.350Z,5.47
2022-11-19T01:30:56.826Z,4.50
2022-11-19T01:33:26.649Z,5.13
2022-11-19T01:35:57.667Z,5.00
2022-11-19T01:38:28.641Z,5.87
2022-11-19T01:40:59.156Z,5.45
2022-11-19T01:43:43.639Z,4.77
2022-11-19T01:46:15.918Z,5.97
2022-11-19T01:48:53.986Z,5.40
2022-11-19T01:51:29.381Z,5.40
2022-11-19T01:54:01.901Z,5.23
2022-11-19T01:56:32.292Z,5.83
2022-11-19T01:59:10.603Z,4.95
2022-11-19T02:01:40.152Z,6.23
2022-11-19T02:04:10.163Z,5.07
2022-11-19T02:06:40.556Z,5.63
2022-11-19T02:09:10.086Z,4.30
2022-11-19T02:11:51.490Z,6.33
2022-11-19T02:14:50.441Z,5.40
2022-11-19T02:17:29.051Z,5.03
2022-11-19T02:20:21.570Z,6.75
2022-11-19T02:23:08.836Z,5.23
2022-11-19T02:25:50.189Z,5.60
2022-11-19T02:28:51.470Z,3.95
2022-11-19T02:31:24.298Z,5.40
2022-11-19T02:34:02.368Z,5.37
2022-11-19T02:36:34.887Z,7.83
2022-11-19T02:39:24.889Z,6.00
2022-11-19T02:42:03.220Z,6.00
2022-11-19T02:44:56.181Z,6.37
2022-11-19T02:47:31.957Z,6.00
2022-11-19T02:50:04.774Z,7.70
2022-11-19T02:52:34.909Z,5.17
2022-11-19T02:55:04.808Z,6.03
2022-11-19T02:57:36.168Z,5.20
2022-11-19T03:00:26.027Z,4.96
2022-11-19T03:03:22.476Z,5.20
2022-11-19T03:05:55.157Z,4.67
2022-11-19T03:08:25.283Z,4.62
2022-11-19T03:10:57.827Z,6.27
2022-11-19T03:13:48.294Z,5.80
2022-11-19T03:16:38.269Z,4.50
2022-11-19T03:19:27.119Z,4.80
2022-11-19T03:21:59.646Z,4.87
2022-11-19T03:24:46.780Z,6.22
2022-11-19T03:27:25.408Z,4.83
2022-11-19T03:29:59.693Z,5.07
2022-11-19T03:32:35.267Z,5.70
2022-11-19T03:35:12.079Z,5.10
2022-11-19T03:37:45.116Z,4.10
2022-11-19T03:40:17.224Z,4.97
2022-11-19T03:42:49.839Z,5.10
2022-11-19T03:45:22.623Z,4.10
2022-11-19T03:47:54.658Z,4.90
2022-11-19T03:50:33.473Z,5.00
2022-11-19T03:53:04.701Z,5.78
2022-11-19T03:55:37.433Z,4.67
2022-11-19T03:58:08.654Z,4.80
2022-11-19T04:00:38.605Z,6.23
2022-11-19T04:03:08.388Z,5.27
2022-11-19T04:05:37.950Z,5.30
2022-11-19T04:08:07.432Z,4.73
2022-11-19T04:10:37.173Z,5.13
2022-11-19T04:13:06.989Z,5.13
2022-11-19T04:15:36.472Z,5.87
2022-11-19T04:18:06.520Z,5.10
2022-11-19T04:20:36.108Z,5.57
2022-11-19T04:23:06.509Z,4.85
2022-11-19T04:25:36.010Z,5.37
2022-11-19T04:28:06.611Z,5.85
2022-11-19T04:30:36.382Z,5.83
2022-11-19T04:33:06.660Z,6.58
2022-11-19T04:35:36.159Z,5.20
2022-11-19T04:38:06.787Z,5.95
2022-11-19T04:40:36.302Z,5.87
2022-11-19T04:43:06.959Z,6.15
2022-11-19T04:45:36.622Z,7.07
2022-11-19T04:48:06.456Z,6.13
2022-11-19T04:50:36.189Z,6.43
2022-11-19T04:53:06.346Z,6.93
2022-11-19T04:55:35.840Z,6.07
2022-11-19T04:58:06.539Z,5.75
2022-11-19T05:00:36.106Z,6.00
2022-11-19T05:03:06.582Z,7.05
2022-11-19T05:05:36.071Z,6.70
2022-11-19T05:08:07.389Z,6.55
2022-11-19T05:10:37.491Z,5.55
2022-11-19T05:13:07.045Z,6.40
2022-11-19T05:15:37.012Z,7.03
2022-11-19T05:18:06.580Z,5.50
2022-11-19T05:20:36.417Z,6.67
2022-11-19T05:23:06.462Z,5.53
2022-11-19T05:25:35.952Z,6.63
2022-11-19T05:28:06.617Z,6.10
2022-11-19T05:30:36.394Z,5.70
2022-11-19T05:33:06.875Z,6.28
2022-11-19T05:35:36.611Z,6.13
2022-11-19T05:38:08.408Z,6.07
2022-11-19T05:40:38.124Z,6.33
2022-11-19T05:43:08.086Z,6.67
2022-11-19T05:45:37.567Z,6.27
2022-11-19T05:48:07.635Z,6.83
2022-11-19T05:50:37.116Z,6.77
2022-11-19T05:53:06.790Z,6.40
2022-11-19T05:55:36.343Z,6.50
2022-11-19T05:58:06.760Z,6.83
2022-11-19T06:00:36.357Z,7.30
2022-11-19T06:03:06.989Z,7.00
2022-11-19T06:05:40.355Z,7.17
2022-11-19T06:08:08.008Z,7.80
2022-11-19T06:10:37.697Z,7.37
2022-11-19T06:13:07.243Z,6.13
2022-11-19T06:15:37.010Z,7.57
2022-11-19T06:18:06.887Z,6.53
2022-11-19T06:20:36.557Z,5.90
2022-11-19T06:23:06.287Z,7.10
2022-11-19T06:25:35.922Z,6.13
2022-11-19T06:28:06.453Z,8.00
2022-11-19T06:30:35.997Z,6.87
2022-11-19T06:33:06.699Z,6.72
2022-11-19T06:35:36.184Z,6.57
2022-11-19T06:38:06.673Z,8.15
2022-11-19T06:40:36.180Z,8.80
2022-11-19T06:43:06.760Z,7.08
2022-11-19T06:45:36.259Z,7.20
2022-11-19T06:48:06.862Z,6.80
2022-11-19T06:50:36.353Z,8.17
2022-11-19T06:53:07.893Z,10.82
2022-11-19T06:55:37.932Z,9.65
2022-11-19T06:58:09.086Z,9.33
2022-11-19T07:03:07.695Z,7.50
2022-11-19T07:05:37.826Z,7.93
2022-11-19T07:08:07.345Z,6.37
2022-11-19T07:10:37.509Z,6.17
2022-11-19T07:13:07.142Z,7.30
2022-11-19T07:15:36.744Z,7.60
2022-11-19T07:18:06.774Z,7.43
2022-11-19T07:20:36.340Z,7.57
2022-11-19T07:23:11.940Z,9.48
2022-11-19T07:25:41.445Z,7.77
2022-11-19T07:28:10.926Z,7.33
2022-11-19T07:30:40.435Z,6.83
2022-11-19T07:33:10.236Z,9.20
2022-11-19T07:35:39.783Z,6.50
2022-11-19T07:38:09.371Z,8.57
2022-11-19T07:40:38.866Z,6.80
2022-11-19T07:43:08.666Z,7.40
2022-11-19T07:45:38.941Z,7.47
2022-11-19T07:48:08.433Z,9.70
2022-11-19T07:50:37.941Z,8.97
2022-11-19T07:53:08.009Z,9.53
2022-11-19T07:55:38.445Z,8.87
2022-11-19T07:58:08.270Z,9.03
2022-11-19T08:00:37.853Z,8.70
2022-11-19T08:03:07.615Z,8.80
2022-11-19T08:05:39.984Z,8.07
2022-11-19T08:08:09.543Z,8.80
2022-11-19T08:10:39.024Z,8.33
2022-11-19T08:13:08.654Z,10.30
2022-11-19T08:15:38.141Z,8.83
2022-11-19T08:18:13.310Z,10.27
2022-11-19T08:20:44.249Z,10.67
2022-11-19T08:23:13.998Z,11.47
2022-11-19T08:25:46.883Z,12.00
2022-11-19T08:28:16.966Z,13.22
2022-11-19T08:30:46.680Z,15.83
2022-11-19T08:33:16.514Z,13.67
2022-11-19T08:35:46.071Z,14.30
2022-11-19T08:38:15.758Z,11.90
2022-11-19T08:40:48.607Z,10.20
2022-11-19T08:43:18.128Z,10.73
2022-11-19T08:45:56.917Z,13.20
2022-11-19T08:48:27.040Z,15.35
2022-11-19T08:50:57.064Z,13.43
2022-11-19T08:53:27.173Z,14.65
2022-11-19T08:55:56.966Z,15.07
2022-11-19T08:58:26.873Z,15.03
2022-11-19T09:00:56.717Z,12.97
2022-11-19T09:03:26.622Z,11.80
2022-11-19T09:06:02.644Z,10.90
2022-11-19T09:08:33.480Z,9.47
2022-11-19T09:11:11.395Z,10.33
2022-11-19T09:13:41.470Z,10.27
2022-11-19T09:16:12.009Z,10.23
2022-11-19T09:18:42.456Z,9.90
2022-11-19T09:21:13.166Z,8.80
2022-11-19T09:23:42.938Z,8.38
2022-11-19T09:26:17.797Z,7.77
2022-11-19T09:28:48.044Z,8.15
2022-11-19T09:31:19.633Z,7.50
2022-11-19T09:33:51.363Z,8.13
2022-11-19T09:36:21.988Z,8.60
2022-11-19T09:38:53.471Z,7.55
2022-11-19T09:41:26.329Z,7.07
2022-11-19T09:44:22.035Z,6.67
2022-11-19T09:46:58.194Z,7.80
2022-11-19T09:49:33.743Z,7.33
2022-11-19T09:52:06.550Z,7.73
2022-11-19T09:54:38.216Z,6.37
2022-11-19T09:57:10.737Z,6.47
2022-11-19T09:59:42.358Z,6.03
2022-11-19T10:04:50.238Z,5.92
2022-11-19T10:07:31.548Z,5.92
2022-11-19T10:10:27.994Z,6.08
2022-11-19T10:13:21.792Z,4.87
2022-11-19T10:16:00.153Z,5.03
2022-11-19T10:18:35.751Z,6.93
2022-11-19T10:21:15.842Z,6.45
2022-11-19T10:23:52.825Z,7.17
2022-11-19T10:26:37.227Z,6.17
2022-11-19T10:29:21.761Z,8.20
2022-11-19T10:31:52.900Z,9.20
2022-11-19T10:34:27.211Z,6.70
2022-11-19T10:37:02.550Z,6.87
2022-11-19T10:40:08.536Z,7.60
2022-11-19T10:42:44.239Z,5.50
2022-11-19T10:45:19.448Z,6.47
2022-11-19T10:48:05.922Z,5.97
2022-11-19T10:50:32.243Z,5.57
2022-11-19T10:53:11.333Z,5.67
2022-11-19T10:55:43.499Z,5.70
2022-11-19T10:58:19.355Z,5.62
2022-11-19T11:00:50.019Z,5.20
2022-11-19T11:03:34.374Z,6.07
2022-11-19T11:06:09.218Z,4.67
2022-11-19T11:08:56.416Z,6.17
2022-11-19T11:11:50.008Z,7.10
2022-11-19T11:14:41.011Z,5.12
2022-11-19T11:17:25.893Z,4.30
2022-11-19T11:20:10.631Z,5.33
2022-11-19T11:22:40.744Z,4.23
2022-11-19T11:25:25.204Z,5.07
2022-11-19T11:28:19.241Z,4.63
2022-11-19T11:31:04.351Z,4.53
2022-11-19T11:33:38.500Z,4.63
2022-11-19T11:36:11.333Z,4.00
2022-11-19T11:38:49.780Z,4.05
2022-11-19T11:44:02.003Z,4.22
2022-11-19T11:46:51.051Z,3.30
2022-11-19T11:49:26.860Z,2.58
2022-11-19T11:51:59.685Z,3.50
2022-11-19T11:54:29.665Z,3.27
2022-11-19T11:57:20.193Z,3.27
2022-11-19T11:59:50.422Z,3.17
2022-11-19T12:02:23.472Z,4.50
2022-11-19T12:04:54.814Z,4.20
2022-11-19T12:07:30.283Z,3.67
2022-11-19T12:10:03.648Z,4.00
2022-11-19T12:12:47.682Z,4.10
2022-11-19T12:15:26.003Z,2.62
2022-11-19T12:18:07.611Z,3.92
2022-11-19T12:20:40.498Z,3.30
2022-11-19T12:23:28.335Z,2.53
2022-11-19T12:26:08.530Z,3.13
2022-11-19T12:28:41.347Z,3.50
2022-11-19T12:31:29.785Z,3.17
2022-11-19T12:34:17.735Z,3.77
2022-11-19T12:36:58.723Z,2.83
2022-11-19T12:39:49.386Z,2.40
2022-11-19T12:42:44.262Z,2.98
2022-11-19T12:45:44.163Z,3.47
2022-11-19T12:48:49.862Z,4.40
2022-11-19T12:51:31.251Z,3.30
2022-11-19T12:54:34.874Z,3.03
2022-11-19T12:57:36.893Z,2.50
2022-11-19T13:00:15.415Z,2.43
2022-11-19T13:02:59.776Z,2.60
2022-11-19T13:05:44.628Z,2.50
2022-11-19T13:08:35.452Z,2.00
2022-11-19T13:11:11.821Z,2.10
2022-11-19T13:13:44.624Z,2.20
2022-11-19T13:16:17.599Z,2.63
2022-11-19T13:18:50.527Z,2.50
2022-11-19T13:21:26.152Z,1.90
2022-11-19T13:23:57.773Z,1.67
2022-11-19T13:26:30.597Z,2.43
2022-11-19T13:29:18.248Z,2.37
2022-11-19T13:31:53.864Z,2.33
2022-11-19T13:34:29.091Z,1.90
2022-11-19T13:37:19.730Z,2.50
2022-11-19T13:39:52.333Z,2.97
2022-11-19T13:42:41.427Z,2.92
2022-11-19T13:45:18.869Z,2.60
2022-11-19T13:47:56.864Z,2.30
2022-11-19T13:50:31.807Z,2.57
2022-11-19T13:53:04.628Z,2.00
2022-11-19T13:55:40.232Z,2.27
2022-11-19T13:58:21.969Z,2.60
2022-11-19T14:01:11.399Z,3.03
2022-11-19T14:04:13.950Z,2.83
2022-11-19T14:06:47.081Z,2.98
2022-11-19T14:09:40.256Z,3.23
2022-11-19T14:12:27.451Z,3.17
2022-11-19T14:15:32.863Z,3.23
2022-11-19T14:18:23.232Z,3.10
2022-11-19T14:21:06.797Z,3.90
2022-11-19T14:24:04.543Z,3.53
2022-11-19T14:26:51.154Z,3.20
2022-11-19T14:29:29.002Z,3.03
2022-11-19T14:32:06.581Z,3.80
2022-11-19T14:34:41.687Z,3.57
2022-11-19T14:37:23.074Z,3.47
2022-11-19T14:39:55.901Z,4.20
2022-11-19T14:42:25.685Z,3.93
2022-11-19T14:45:07.578Z,3.92
2022-11-19T14:47:42.077Z,3.83
2022-11-19T14:50:29.345Z,4.25
2022-11-19T14:53:02.904Z,4.03
2022-11-19T14:55:35.383Z,3.97
2022-11-19T14:58:23.315Z,4.20
2022-11-19T15:00:56.136Z,4.60
2022-11-19T15:03:28.659Z,4.20
2022-11-19T15:05:59.366Z,3.60
2022-11-19T15:08:32.028Z,4.15
2022-11-19T15:11:12.745Z,4.67
2022-11-19T15:13:49.856Z,5.07
2022-11-19T15:16:27.464Z,3.67
2022-11-19T15:19:22.737Z,5.23
2022-11-19T15:22:27.029Z,4.40
2022-11-19T15:25:19.651Z,4.33
2022-11-19T15:28:08.689Z,5.63
2022-11-19T15:30:53.103Z,5.17
2022-11-19T15:33:37.831Z,6.73
2022-11-19T15:36:31.314Z,6.33
2022-11-19T15:39:25.141Z,5.73
2022-11-19T15:42:03.927Z,6.10
2022-11-19T15:44:39.499Z,6.53
2022-11-19T15:47:20.901Z,6.10
2022-11-19T15:49:52.442Z,5.20
2022-11-19T15:52:25.259Z,6.07
2022-11-19T15:55:13.015Z,6.37
2022-11-19T15:57:44.993Z,5.67
2022-11-19T16:00:17.089Z,6.50
2022-11-19T16:02:49.878Z,6.80
2022-11-19T16:05:22.526Z,5.50
2022-11-19T16:07:53.956Z,7.03
2022-11-19T16:10:31.637Z,6.13
2022-11-19T16:13:24.655Z,6.80
2022-11-19T16:16:12.850Z,6.20
2022-11-19T16:18:50.395Z,7.27
2022-11-19T16:21:26.167Z,6.43
2022-11-19T16:24:14.217Z,7.27
2022-11-19T16:26:45.227Z,7.73
2022-11-19T16:29:20.673Z,5.97
2022-11-19T16:31:52.149Z,6.83
2022-11-19T16:34:31.060Z,6.22
2022-11-19T16:37:01.488Z,7.87
2022-11-19T16:39:32.577Z,7.17
2022-11-19T16:42:18.169Z,6.80
2022-11-19T16:44:50.419Z,7.30
2022-11-19T16:47:34.960Z,6.37
2022-11-19T16:50:17.548Z,5.70
2022-11-19T16:52:47.022Z,5.93
2022-11-19T16:55:22.524Z,6.67
2022-11-19T16:58:00.854Z,6.37
2022-11-19T17:00:38.350Z,6.30
2022-11-19T17:03:27.536Z,7.07
2022-11-19T17:05:59.306Z,7.60
2022-11-19T17:08:37.665Z,7.40
2022-11-19T17:11:39.105Z,6.67
2022-11-19T17:14:33.214Z,6.60
2022-11-19T17:17:03.739Z,6.80
2022-11-19T17:19:35.562Z,7.80
2022-11-19T17:22:08.397Z,8.70
2022-11-19T17:24:45.415Z,6.90
2022-11-19T17:27:33.129Z,7.67
2022-11-19T17:30:22.555Z,6.67
2022-11-19T17:33:01.007Z,8.43
2022-11-19T17:35:44.865Z,7.43
2022-11-19T17:38:20.057Z,6.50
2022-11-19T17:40:56.467Z,8.60
2022-11-19T17:43:49.619Z,7.63
2022-11-19T17:46:19.807Z,7.33
2022-11-19T17:48:50.822Z,7.60
2022-11-19T17:53:51.747Z,7.53
2022-11-19T17:58:56.935Z,7.35
2022-11-19T18:01:26.852Z,8.27
2022-11-19T18:03:56.507Z,8.70
2022-11-19T18:06:26.286Z,8.27
2022-11-19T18:08:56.115Z,8.10
2022-11-19T18:11:27.352Z,8.17
2022-11-19T18:14:00.852Z,8.37
2022-11-19T18:16:37.819Z,8.17
2022-11-19T18:19:16.575Z,8.80
2022-11-19T18:21:46.976Z,9.37
2022-11-19T18:24:16.961Z,9.10
2022-11-19T18:26:46.488Z,16.60
2022-11-19T18:29:16.063Z,19.40
2022-11-19T18:31:48.302Z,21.70
2022-11-19T18:34:20.709Z,15.90
2022-11-19T18:36:50.732Z,15.47
2022-11-19T18:39:20.594Z,19.82
2022-11-19T18:41:50.513Z,11.47
2022-11-19T18:44:35.483Z,10.28
2022-11-19T18:47:12.243Z,10.25
2022-11-19T18:49:42.152Z,10.77
2022-11-19T18:52:16.953Z,8.80
2022-11-19T18:54:46.901Z,10.60
2022-11-19T18:57:16.696Z,8.70
2022-11-19T18:59:47.273Z,9.13
2022-11-19T19:02:17.099Z,10.10
2022-11-19T19:04:50.817Z,11.45
2022-11-19T19:07:18.882Z,11.45
2022-11-19T19:09:48.456Z,10.43
2022-11-19T19:12:18.380Z,10.70
2022-11-19T19:14:51.421Z,10.37
2022-11-19T19:17:21.266Z,10.18
2022-11-19T19:19:50.874Z,10.93
2022-11-19T19:22:20.893Z,10.03
2022-11-19T19:24:55.199Z,9.77
2022-11-19T19:27:24.751Z,10.63
2022-11-19T19:29:56.996Z,10.70
2022-11-19T19:32:27.347Z,9.08
2022-11-19T19:34:57.236Z,10.80
2022-11-19T19:37:27.753Z,11.13
2022-11-19T19:39:57.635Z,13.15
2022-11-19T19:42:29.190Z,10.80
2022-11-19T19:44:58.679Z,14.20
2022-11-19T19:47:28.332Z,13.00
2022-11-19T19:49:57.903Z,12.40
2022-11-19T19:52:27.399Z,11.57
2022-11-19T19:54:57.233Z,12.80
2022-11-19T19:57:31.330Z,11.90
2022-11-19T20:00:00.931Z,11.37
2022-11-19T20:02:30.590Z,10.93
2022-11-19T20:05:00.267Z,11.90
2022-11-19T20:07:29.863Z,13.50
2022-11-19T20:09:59.485Z,11.00
2022-11-19T20:12:30.612Z,12.63
2022-11-19T20:15:00.344Z,13.40
2022-11-19T20:17:30.027Z,12.90
2022-11-19T20:19:59.514Z,11.27
2022-11-19T20:22:29.532Z,12.30
2022-11-19T20:24:59.204Z,12.00
2022-11-19T20:27:28.924Z,11.17
2022-11-19T20:29:58.525Z,12.63
2022-11-19T20:32:28.195Z,12.10
2022-11-19T20:34:57.733Z,12.47
2022-11-19T20:37:27.402Z,11.63
2022-11-19T20:39:57.849Z,11.80
2022-11-19T20:42:45.300Z,12.03
2022-11-19T20:45:15.148Z,13.47
2022-11-19T20:47:44.676Z,14.43
2022-11-19T20:50:14.748Z,14.00
2022-11-19T20:52:44.445Z,12.77
2022-11-19T20:55:14.014Z,11.07
2022-11-19T20:57:43.504Z,12.63
2022-11-19T21:00:14.304Z,11.53
2022-11-19T21:02:44.140Z,13.35
2022-11-19T21:05:13.944Z,11.80
2022-11-19T21:07:43.862Z,12.37
2022-11-19T21:10:13.451Z,12.77
2022-11-19T21:12:44.594Z,13.07
2022-11-19T21:15:14.629Z,13.00
2022-11-19T21:17:44.133Z,12.20
2022-11-19T21:20:13.958Z,13.23
2022-11-19T21:22:45.097Z,14.60
2022-11-19T21:25:15.349Z,12.90
2022-11-19T21:27:45.391Z,10.97
2022-11-19T21:30:15.477Z,11.67
2022-11-19T21:32:44.964Z,14.70
2022-11-19T21:35:14.599Z,12.60
2022-11-19T21:37:44.312Z,13.17
2022-11-19T21:40:13.989Z,13.07
2022-11-19T21:42:43.481Z,14.10
2022-11-19T21:45:13.056Z,13.43
2022-11-19T21:47:42.564Z,13.73
2022-11-19T21:50:12.245Z,13.43
2022-11-19T21:52:41.996Z,15.60
2022-11-19T21:55:11.765Z,13.67
2022-11-19T21:57:41.259Z,12.37
2022-11-19T22:00:15.325Z,14.03
2022-11-19T22:02:45.697Z,13.28
2022-11-19T22:05:15.261Z,12.73
2022-11-19T22:07:46.168Z,13.47
2022-11-19T22:10:16.920Z,13.40
2022-11-19T22:12:46.417Z,12.33
2022-11-19T22:15:16.221Z,11.78
2022-11-19T22:17:45.947Z,12.53
2022-11-19T22:20:15.700Z,13.60
2022-11-19T22:22:45.861Z,13.43
2022-11-19T22:25:15.603Z,13.55
2022-11-19T22:27:45.278Z,14.87
2022-11-19T22:30:15.269Z,14.13
2022-11-19T22:32:44.842Z,14.90
2022-11-19T22:35:14.325Z,15.07
2022-11-19T22:37:43.833Z,15.97
2022-11-19T22:40:14.501Z,14.10
2022-11-19T22:42:44.365Z,15.00
2022-11-19T22:45:13.845Z,13.40
2022-11-19T22:47:43.385Z,13.67
2022-11-19T22:50:13.041Z,13.60
2022-11-19T22:52:42.550Z,13.00
2022-11-19T22:55:12.331Z,15.37
2022-11-19T22:57:41.898Z,10.90
2022-11-19T23:00:13.710Z,12.87
2022-11-19T23:02:43.882Z,11.27
2022-11-19T23:05:14.000Z,12.40
2022-11-19T23:07:43.590Z,11.50
2022-11-19T23:10:13.088Z,13.07
2022-11-19T23:13:00.149Z,11.93
2022-11-19T23:15:29.792Z,12.27
2022-11-19T23:17:59.300Z,10.77
2022-11-19T23:20:28.803Z,10.43
2022-11-19T23:22:58.378Z,12.00
2022-11-19T23:25:27.874Z,11.57
2022-11-19T23:27:57.372Z,11.67
2022-11-19T23:30:26.879Z,11.80
2022-11-19T23:32:56.436Z,10.93
2022-11-19T23:35:25.950Z,11.27
2022-11-19T23:37:55.439Z,11.10
2022-11-19T23:40:25.231Z,11.97
2022-11-19T23:42:54.744Z,10.90
2022-11-19T23:45:24.528Z,11.70
2022-11-19T23:47:54.101Z,11.47
2022-11-19T23:50:23.875Z,8.28
2022-11-19T23:52:53.756Z,13.38
2022-11-19T23:55:23.307Z,11.20
2022-11-19T23:57:52.828Z,12.40
